Terminal Aerodrome Forecast
Issued by NWS Portland, ME

Home | Current Version | Previous Version | Text Only | Print | Product List | Glossary On
Versions: 1 2 3 4 5 6 7 8 9 10 11 12 13 14 15 16 17 18 19 20 21 22 23 24 25 26 27 28
000
FTUS41 KGYX 022334
TAFPWM
TAF
KPWM 022334Z 0300/0324 36003KT P6SM OVC025
     FM030300 VRB03KT 3SM BR BKN008
     FM031200 04006KT P6SM BKN035
     FM031800 15007KT P6SM SCT050=

USA.gov is the U.S. government's official web portal to all federal, state and local government web resources and services.